createdAt,value
2023-02-25T00:00:36.885Z,13.67
2023-02-25T00:03:04.880Z,13.90
2023-02-25T00:05:32.443Z,14.63
2023-02-25T00:08:00.428Z,16.53
2023-02-25T00:10:28.216Z,11.33
2023-02-25T00:12:58.960Z,11.10
2023-02-25T00:15:33.465Z,13.17
2023-02-25T00:18:01.030Z,14.50
2023-02-25T00:20:28.619Z,9.67
2023-02-25T00:22:56.120Z,7.80
2023-02-25T00:25:23.709Z,21.67
2023-02-25T00:27:51.195Z,12.00
2023-02-25T00:30:18.759Z,10.03
2023-02-25T00:32:46.291Z,8.43
2023-02-25T00:35:13.920Z,11.03
2023-02-25T00:37:41.450Z,10.27
2023-02-25T00:40:09.806Z,16.07
2023-02-25T00:42:37.308Z,11.27
2023-02-25T00:45:05.046Z,9.07
2023-02-25T00:47:32.616Z,7.07
2023-02-25T00:50:00.260Z,13.90
2023-02-25T00:52:27.786Z,8.47
2023-02-25T00:54:55.313Z,8.70
2023-02-25T00:57:22.905Z,13.37
2023-02-25T00:59:50.480Z,14.80
2023-02-25T01:02:18.008Z,20.10
2023-02-25T01:04:45.602Z,9.03
2023-02-25T01:07:13.389Z,12.30
2023-02-25T01:09:40.989Z,17.07
2023-02-25T01:12:08.656Z,9.83
2023-02-25T01:14:36.254Z,17.53
2023-02-25T01:17:03.765Z,12.43
2023-02-25T01:19:31.329Z,9.50
2023-02-25T01:21:59.348Z,16.30
2023-02-25T01:24:28.509Z,10.37
2023-02-25T01:26:57.424Z,15.10
2023-02-25T01:29:29.216Z,10.17
2023-02-25T01:31:57.881Z,12.43
2023-02-25T01:34:25.525Z,11.53
2023-02-25T01:36:53.349Z,13.20
2023-02-25T01:39:21.242Z,10.13
2023-02-25T01:41:49.497Z,18.40
2023-02-25T01:44:25.947Z,12.07
2023-02-25T01:46:54.471Z,11.73
2023-02-25T01:49:28.208Z,11.73
2023-02-25T01:51:58.565Z,9.83
2023-02-25T01:54:26.086Z,15.10
2023-02-25T01:56:55.099Z,13.93
2023-02-25T01:59:24.305Z,18.53
2023-02-25T02:01:52.252Z,12.97
2023-02-25T02:04:20.458Z,15.47
2023-02-25T02:06:49.350Z,16.70
2023-02-25T02:09:22.303Z,19.10
2023-02-25T02:11:49.890Z,9.77
2023-02-25T02:14:23.691Z,14.10
2023-02-25T02:17:03.100Z,11.47
2023-02-25T02:19:30.640Z,22.90
2023-02-25T02:22:05.829Z,14.00
2023-02-25T02:24:52.306Z,12.70
2023-02-25T02:27:46.217Z,17.17
2023-02-25T02:30:25.208Z,13.70
2023-02-25T02:33:11.335Z,16.47
2023-02-25T02:35:50.544Z,14.00
2023-02-25T02:38:24.598Z,18.23
2023-02-25T02:41:15.398Z,15.63
2023-02-25T02:43:48.896Z,14.13
2023-02-25T02:46:21.232Z,18.17
2023-02-25T02:49:10.098Z,10.10
2023-02-25T02:51:44.595Z,10.67
2023-02-25T02:54:13.051Z,11.63
2023-02-25T02:56:42.899Z,13.70
2023-02-25T02:59:17.747Z,13.83
2023-02-25T03:01:47.863Z,15.07
2023-02-25T03:04:17.736Z,18.00
2023-02-25T03:06:46.971Z,11.93
2023-02-25T03:09:20.493Z,17.00
2023-02-25T03:11:48.114Z,16.57
2023-02-25T03:14:15.722Z,8.70
2023-02-25T03:16:56.954Z,16.50
2023-02-25T03:19:28.322Z,11.13
2023-02-25T03:21:58.486Z,12.50
2023-02-25T03:24:33.281Z,13.27
2023-02-25T03:27:00.943Z,9.33
2023-02-25T03:29:28.817Z,9.37
2023-02-25T03:32:16.015Z,13.03
2023-02-25T03:34:49.281Z,10.27
2023-02-25T03:37:22.778Z,15.23
2023-02-25T03:39:52.651Z,16.87
2023-02-25T03:42:22.327Z,12.43
2023-02-25T03:44:51.724Z,12.57
2023-02-25T03:47:20.197Z,10.50
2023-02-25T03:49:53.824Z,25.03
2023-02-25T03:52:23.302Z,9.13
2023-02-25T03:54:52.010Z,14.17
2023-02-25T03:57:20.371Z,15.23
2023-02-25T03:59:47.877Z,13.77
2023-02-25T04:02:16.431Z,9.87
2023-02-25T04:04:44.124Z,17.90
2023-02-25T04:07:11.710Z,11.40
2023-02-25T04:09:39.268Z,9.27
2023-02-25T04:12:06.973Z,14.17
2023-02-25T04:14:34.496Z,13.40
2023-02-25T04:17:02.117Z,15.83
2023-02-25T04:19:29.651Z,9.73
2023-02-25T04:21:57.227Z,19.07
2023-02-25T04:24:24.729Z,16.90
2023-02-25T04:26:52.299Z,15.20
2023-02-25T04:29:19.779Z,14.07
2023-02-25T04:31:47.462Z,11.43
2023-02-25T04:34:15.051Z,11.67
2023-02-25T04:36:42.594Z,18.47
2023-02-25T04:39:11.086Z,22.93
2023-02-25T04:41:38.986Z,14.47
2023-02-25T04:44:07.371Z,8.20
2023-02-25T04:46:36.058Z,12.43
2023-02-25T04:49:04.057Z,13.07
2023-02-25T04:51:31.614Z,14.43
2023-02-25T04:53:59.132Z,17.20
2023-02-25T04:56:26.766Z,12.03
2023-02-25T04:58:54.336Z,14.67
2023-02-25T05:01:21.938Z,17.97
2023-02-25T05:03:49.584Z,14.27
2023-02-25T05:06:17.181Z,13.50
2023-02-25T05:08:44.704Z,19.57
2023-02-25T05:11:12.252Z,10.33
2023-02-25T05:13:39.775Z,15.63
2023-02-25T05:16:08.698Z,12.77
2023-02-25T05:19:00.693Z,17.30
2023-02-25T05:21:53.713Z,18.47
2023-02-25T05:24:21.290Z,23.10
2023-02-25T05:26:50.029Z,15.70
2023-02-25T05:29:17.626Z,13.03
2023-02-25T05:31:45.288Z,11.77
2023-02-25T05:34:13.061Z,17.00
2023-02-25T05:36:40.809Z,13.17
2023-02-25T05:39:08.384Z,11.77
2023-02-25T05:41:41.812Z,11.37
2023-02-25T05:44:11.004Z,13.40
2023-02-25T05:46:38.621Z,18.47
2023-02-25T05:49:06.221Z,9.80
2023-02-25T05:51:34.404Z,13.33
2023-02-25T05:54:01.963Z,11.20
2023-02-25T05:56:32.006Z,13.77
2023-02-25T05:59:00.233Z,7.30
2023-02-25T06:01:28.079Z,11.63
2023-02-25T06:03:56.406Z,9.83
2023-02-25T06:06:24.297Z,17.23
2023-02-25T06:08:52.445Z,11.37
2023-02-25T06:11:22.262Z,12.87
2023-02-25T06:13:50.950Z,11.73
2023-02-25T06:16:18.888Z,15.40
2023-02-25T06:18:47.405Z,12.47
2023-02-25T06:21:15.666Z,15.40
2023-02-25T06:23:44.035Z,9.60
2023-02-25T06:26:13.064Z,15.27
2023-02-25T06:28:40.955Z,13.77
2023-02-25T06:31:09.819Z,12.33
2023-02-25T06:33:38.054Z,11.43
2023-02-25T06:36:06.093Z,9.83
2023-02-25T06:38:34.716Z,10.93
2023-02-25T06:41:06.022Z,14.30
2023-02-25T06:43:33.631Z,8.70
2023-02-25T06:46:04.123Z,12.43
2023-02-25T06:48:31.774Z,13.87
2023-02-25T06:50:59.309Z,16.30
2023-02-25T06:53:26.930Z,14.07
2023-02-25T06:55:54.478Z,11.67
2023-02-25T06:58:22.024Z,14.40
2023-02-25T07:00:49.680Z,14.57
2023-02-25T07:03:17.304Z,16.47
2023-02-25T07:05:44.812Z,15.27
2023-02-25T07:08:12.372Z,22.07
2023-02-25T07:10:39.875Z,16.90
2023-02-25T07:13:07.972Z,16.57
2023-02-25T07:15:35.888Z,22.33
2023-02-25T07:18:04.257Z,10.97
2023-02-25T07:20:31.810Z,17.93
2023-02-25T07:22:59.327Z,10.93
2023-02-25T07:25:26.903Z,14.77
2023-02-25T07:27:54.496Z,14.77
2023-02-25T07:30:22.033Z,13.67
2023-02-25T07:32:49.621Z,14.90
2023-02-25T07:35:17.216Z,13.30
2023-02-25T07:37:44.746Z,11.03
2023-02-25T07:40:12.604Z,11.97
2023-02-25T07:42:43.487Z,13.47
2023-02-25T07:45:11.892Z,15.07
2023-02-25T07:47:39.422Z,13.00
2023-02-25T07:50:07.637Z,18.93
2023-02-25T07:52:35.209Z,18.47
2023-02-25T07:55:03.534Z,13.90
2023-02-25T07:57:31.134Z,16.90
2023-02-25T07:59:58.822Z,18.30
2023-02-25T08:02:26.799Z,18.33
2023-02-25T08:04:54.747Z,21.20
2023-02-25T08:07:22.623Z,11.03
2023-02-25T08:09:50.504Z,10.33
2023-02-25T08:12:19.372Z,8.80
2023-02-25T08:14:47.396Z,11.73
2023-02-25T08:17:15.272Z,14.03
2023-02-25T08:19:42.964Z,11.67
2023-02-25T08:22:10.495Z,12.60
2023-02-25T08:24:38.753Z,11.77
2023-02-25T08:27:06.681Z,12.47
2023-02-25T08:29:34.346Z,14.27
2023-02-25T08:32:01.977Z,8.23
2023-02-25T08:34:29.583Z,14.00
2023-02-25T08:36:57.110Z,14.57
2023-02-25T08:39:24.670Z,15.30
2023-02-25T08:41:52.231Z,6.50
2023-02-25T08:44:19.803Z,21.30
2023-02-25T08:46:47.428Z,17.33
2023-02-25T08:49:15.031Z,15.23
2023-02-25T08:51:42.698Z,13.43
2023-02-25T08:54:12.598Z,15.17
2023-02-25T08:56:40.694Z,11.40
2023-02-25T08:59:08.256Z,17.73
2023-02-25T09:01:35.800Z,15.23
2023-02-25T09:04:03.461Z,13.23
2023-02-25T09:06:30.994Z,15.90
2023-02-25T09:08:58.573Z,19.10
2023-02-25T09:11:26.912Z,12.37
2023-02-25T09:13:54.895Z,12.27
2023-02-25T09:16:22.669Z,13.97
2023-02-25T09:18:50.883Z,12.57
2023-02-25T09:21:19.055Z,16.03
2023-02-25T09:23:47.056Z,11.17
2023-02-25T09:26:14.938Z,12.97
2023-02-25T09:28:42.872Z,13.90
2023-02-25T09:31:10.694Z,16.67
2023-02-25T09:33:38.576Z,9.83
2023-02-25T09:36:10.241Z,14.33
2023-02-25T09:38:38.557Z,10.83
2023-02-25T09:41:25.108Z,10.50
2023-02-25T09:44:19.377Z,12.53
2023-02-25T09:46:50.007Z,14.80
2023-02-25T09:49:23.977Z,13.30
2023-02-25T09:51:54.355Z,12.90
2023-02-25T09:54:28.238Z,13.23
2023-02-25T09:56:56.010Z,13.63
2023-02-25T09:59:23.553Z,10.80
2023-02-25T10:02:03.280Z,10.63
2023-02-25T10:04:49.456Z,7.87
2023-02-25T10:07:22.038Z,6.87
2023-02-25T10:09:57.905Z,6.93
2023-02-25T10:12:31.367Z,3.73
2023-02-25T10:15:01.690Z,6.40
2023-02-25T10:17:41.515Z,8.03
2023-02-25T10:20:24.402Z,9.83
2023-02-25T10:23:00.947Z,10.33
2023-02-25T10:25:29.871Z,7.67
2023-02-25T10:28:00.326Z,10.00
2023-02-25T10:30:31.607Z,6.87
2023-02-25T10:33:01.542Z,9.03
2023-02-25T10:35:30.086Z,11.10
2023-02-25T10:37:57.692Z,3.10
2023-02-25T10:40:26.213Z,6.20
2023-02-25T10:42:54.898Z,6.43
2023-02-25T10:45:29.606Z,10.97
2023-02-25T10:48:15.501Z,5.23
2023-02-25T10:50:46.308Z,8.77
2023-02-25T10:53:18.084Z,11.00
2023-02-25T10:55:47.639Z,9.97
2023-02-25T10:58:33.703Z,8.97
2023-02-25T11:01:04.390Z,10.73
2023-02-25T11:03:34.174Z,11.30
2023-02-25T11:06:09.296Z,9.97
2023-02-25T11:08:36.844Z,7.17
2023-02-25T11:11:05.752Z,6.17
2023-02-25T11:13:35.640Z,7.00
2023-02-25T11:16:07.950Z,4.97
2023-02-25T11:18:36.336Z,6.60
2023-02-25T11:21:05.835Z,4.83
2023-02-25T11:23:39.067Z,3.87
2023-02-25T11:26:07.623Z,5.07
2023-02-25T11:28:38.889Z,6.90
2023-02-25T11:31:12.178Z,5.53
2023-02-25T11:33:43.458Z,3.73
2023-02-25T11:36:11.502Z,4.83
2023-02-25T11:38:41.247Z,8.40
2023-02-25T11:41:22.757Z,3.60
2023-02-25T11:43:53.233Z,2.93
2023-02-25T11:46:23.903Z,3.33
2023-02-25T11:49:18.217Z,4.47
2023-02-25T11:52:00.812Z,3.30
2023-02-25T11:54:34.474Z,2.43
2023-02-25T11:57:05.134Z,5.73
2023-02-25T11:59:56.421Z,4.83
2023-02-25T12:02:30.745Z,8.97
2023-02-25T12:05:10.445Z,5.87
2023-02-25T12:08:05.097Z,5.27
2023-02-25T12:10:56.014Z,3.90
2023-02-25T12:13:29.533Z,5.77
2023-02-25T12:16:14.260Z,5.30
2023-02-25T12:18:44.609Z,5.53
2023-02-25T12:21:31.188Z,3.73
2023-02-25T12:24:25.220Z,7.03
2023-02-25T12:27:02.034Z,4.03
2023-02-25T12:29:41.703Z,4.00
2023-02-25T12:32:24.725Z,7.67
2023-02-25T12:35:04.683Z,3.40
2023-02-25T12:37:35.397Z,7.60
2023-02-25T12:40:22.049Z,6.00
2023-02-25T12:42:58.159Z,3.27
2023-02-25T12:45:35.744Z,5.73
2023-02-25T12:48:23.319Z,5.47
2023-02-25T12:50:50.881Z,3.27
2023-02-25T12:53:37.045Z,10.60
2023-02-25T12:56:04.952Z,4.33
2023-02-25T12:58:36.793Z,9.47
2023-02-25T13:01:44.130Z,4.47
2023-02-25T13:04:31.429Z,6.70
2023-02-25T13:07:14.258Z,7.13
2023-02-25T13:09:53.695Z,4.97
2023-02-25T13:12:30.628Z,7.13
2023-02-25T13:14:58.318Z,4.47
2023-02-25T13:17:33.040Z,2.63
2023-02-25T13:20:06.693Z,10.83
2023-02-25T13:22:44.416Z,6.43
2023-02-25T13:25:22.833Z,3.73
2023-02-25T13:27:51.747Z,5.33
2023-02-25T13:30:20.203Z,7.93
2023-02-25T13:33:10.760Z,5.50
2023-02-25T13:35:53.618Z,8.07
2023-02-25T13:38:40.090Z,7.07
2023-02-25T13:41:26.346Z,11.10
2023-02-25T13:44:08.402Z,3.37
2023-02-25T13:46:54.186Z,4.33
2023-02-25T13:49:40.493Z,4.23
2023-02-25T13:52:20.982Z,2.93
2023-02-25T13:54:54.594Z,3.23
2023-02-25T13:57:25.201Z,5.30
2023-02-25T13:59:58.825Z,5.13
2023-02-25T14:02:26.433Z,1.83
2023-02-25T14:04:56.835Z,3.37
2023-02-25T14:07:32.740Z,6.83
2023-02-25T14:10:05.541Z,2.87
2023-02-25T14:12:51.170Z,1.60
2023-02-25T14:15:21.892Z,2.17
2023-02-25T14:17:54.833Z,5.53
2023-02-25T14:20:22.449Z,4.13
2023-02-25T14:22:53.561Z,3.33
2023-02-25T14:25:27.348Z,2.60
2023-02-25T14:28:18.978Z,4.87
2023-02-25T14:30:57.326Z,2.43
2023-02-25T14:33:34.334Z,6.60
2023-02-25T14:36:01.879Z,4.17
2023-02-25T14:38:35.507Z,2.70
2023-02-25T14:41:22.004Z,4.67
2023-02-25T14:43:50.781Z,4.57
2023-02-25T14:46:27.191Z,2.57
2023-02-25T14:49:00.590Z,2.80
2023-02-25T14:51:31.256Z,3.70
2023-02-25T14:54:17.375Z,5.33
2023-02-25T14:56:53.861Z,3.73
2023-02-25T14:59:30.351Z,4.83
2023-02-25T15:02:16.612Z,0.80
2023-02-25T15:04:44.193Z,3.97
2023-02-25T15:07:30.216Z,2.50
2023-02-25T15:10:10.057Z,2.87
2023-02-25T15:13:00.354Z,1.83
2023-02-25T15:15:34.103Z,2.67
2023-02-25T15:18:20.541Z,2.37
2023-02-25T15:20:48.398Z,5.90
2023-02-25T15:23:19.842Z,1.67
2023-02-25T15:25:48.775Z,3.03
2023-02-25T15:28:32.604Z,4.30
2023-02-25T15:31:00.494Z,4.07
2023-02-25T15:33:40.509Z,3.47
2023-02-25T15:36:17.051Z,3.37
2023-02-25T15:38:51.548Z,2.90
2023-02-25T15:41:28.345Z,4.47
2023-02-25T15:43:59.787Z,4.23
2023-02-25T15:46:36.215Z,1.47
2023-02-25T15:49:06.807Z,2.40
2023-02-25T15:51:45.410Z,2.43
2023-02-25T15:54:33.247Z,2.10
2023-02-25T15:57:01.747Z,3.13
2023-02-25T15:59:44.606Z,2.23
2023-02-25T16:02:27.325Z,8.67
2023-02-25T16:05:00.782Z,2.47
2023-02-25T16:07:32.819Z,4.37
2023-02-25T16:10:03.481Z,3.63
2023-02-25T16:12:31.269Z,5.87
2023-02-25T16:14:59.674Z,1.93
2023-02-25T16:17:34.706Z,0.87
2023-02-25T16:20:22.635Z,2.43
2023-02-25T16:22:53.772Z,2.50
2023-02-25T16:25:25.031Z,2.67
2023-02-25T16:27:58.670Z,1.53
2023-02-25T16:30:29.409Z,1.53
2023-02-25T16:32:58.796Z,2.77
2023-02-25T16:35:34.384Z,4.53
2023-02-25T16:38:01.952Z,2.20
2023-02-25T16:40:36.640Z,6.00
2023-02-25T16:43:04.588Z,2.67
2023-02-25T16:45:37.923Z,3.80
2023-02-25T16:48:07.681Z,4.87
2023-02-25T16:50:36.340Z,4.57
2023-02-25T16:53:04.466Z,4.00
2023-02-25T16:55:38.444Z,2.57
2023-02-25T16:58:06.009Z,5.67
2023-02-25T17:00:34.434Z,3.33
2023-02-25T17:03:02.765Z,3.00
2023-02-25T17:05:35.485Z,2.57
2023-02-25T17:08:05.056Z,3.77
2023-02-25T17:10:35.368Z,4.47
2023-02-25T17:13:04.285Z,7.60
2023-02-25T17:15:36.150Z,4.80
2023-02-25T17:18:09.222Z,4.07
2023-02-25T17:20:37.322Z,4.10
2023-02-25T17:23:07.956Z,1.47
2023-02-25T17:25:37.780Z,4.83
2023-02-25T17:28:06.801Z,3.63
2023-02-25T17:30:34.478Z,3.23
2023-02-25T17:33:02.377Z,2.87
2023-02-25T17:35:30.168Z,3.70
2023-02-25T17:37:57.776Z,1.77
2023-02-25T17:40:27.358Z,1.50
2023-02-25T17:43:13.562Z,3.73
2023-02-25T17:45:42.946Z,6.33
2023-02-25T17:48:16.069Z,5.70
2023-02-25T17:50:43.709Z,3.03
2023-02-25T17:53:24.326Z,4.00
2023-02-25T17:55:52.045Z,1.93
2023-02-25T17:58:23.153Z,1.80
2023-02-25T18:01:00.420Z,4.03
2023-02-25T18:03:28.064Z,2.13
2023-02-25T18:06:00.402Z,2.53
2023-02-25T18:08:31.324Z,2.53
2023-02-25T18:11:21.641Z,3.03
2023-02-25T18:13:49.396Z,2.77
2023-02-25T18:16:29.058Z,2.60
2023-02-25T18:18:57.727Z,4.27
2023-02-25T18:21:25.346Z,5.37
2023-02-25T18:23:53.120Z,4.90
2023-02-25T18:26:25.150Z,2.37
2023-02-25T18:28:53.473Z,3.27
2023-02-25T18:31:21.127Z,4.03
2023-02-25T18:33:48.803Z,7.03
2023-02-25T18:36:24.411Z,4.57
2023-02-25T18:38:53.601Z,5.77
2023-02-25T18:41:21.118Z,2.10
2023-02-25T18:43:48.678Z,3.57
2023-02-25T18:46:16.211Z,5.70
2023-02-25T18:48:43.778Z,7.50
2023-02-25T18:51:13.238Z,5.73
2023-02-25T18:53:41.167Z,7.87
2023-02-25T18:56:08.720Z,5.17
2023-02-25T18:58:36.382Z,4.20
2023-02-25T19:01:03.877Z,2.23
2023-02-25T19:03:31.493Z,9.40
2023-02-25T19:05:58.989Z,6.23
2023-02-25T19:08:26.637Z,6.90
2023-02-25T19:10:54.716Z,5.73
2023-02-25T19:13:26.805Z,9.23
2023-02-25T19:15:54.451Z,5.67
2023-02-25T19:18:22.053Z,3.07
2023-02-25T19:20:49.661Z,7.77
2023-02-25T19:23:17.873Z,3.37
2023-02-25T19:25:46.227Z,5.03
2023-02-25T19:28:13.823Z,7.67
2023-02-25T19:30:42.787Z,4.30
2023-02-25T19:33:14.040Z,4.80
2023-02-25T19:35:42.594Z,4.90
2023-02-25T19:38:19.555Z,4.50
2023-02-25T19:40:47.624Z,12.57
2023-02-25T19:43:15.980Z,5.17
2023-02-25T19:45:43.684Z,6.93
2023-02-25T19:48:11.479Z,5.37
2023-02-25T19:50:40.725Z,5.47
2023-02-25T19:53:08.452Z,2.30
2023-02-25T19:55:36.034Z,4.13
2023-02-25T19:58:03.599Z,9.17
2023-02-25T20:00:31.304Z,7.07
2023-02-25T20:02:58.867Z,5.90
2023-02-25T20:05:26.491Z,7.07
2023-02-25T20:07:54.075Z,5.70
2023-02-25T20:10:21.680Z,5.37
2023-02-25T20:12:49.253Z,8.43
2023-02-25T20:15:17.104Z,6.47
2023-02-25T20:17:45.473Z,7.30
2023-02-25T20:20:13.767Z,3.47
2023-02-25T20:22:41.380Z,7.00
2023-02-25T20:25:09.636Z,5.27
2023-02-25T20:27:37.259Z,6.23
2023-02-25T20:30:05.496Z,9.77
2023-02-25T20:32:33.082Z,8.10
2023-02-25T20:35:00.774Z,11.93
2023-02-25T20:37:30.774Z,6.57
2023-02-25T20:39:58.949Z,10.27
2023-02-25T20:42:28.027Z,7.60
2023-02-25T20:44:55.644Z,10.50
2023-02-25T20:47:23.173Z,8.60
2023-02-25T20:49:50.924Z,7.10
2023-02-25T20:52:18.574Z,8.77
2023-02-25T20:54:46.878Z,4.97
2023-02-25T20:57:15.772Z,5.23
2023-02-25T20:59:43.305Z,8.97
2023-02-25T21:02:11.729Z,5.27
2023-02-25T21:04:39.288Z,4.57
2023-02-25T21:07:07.310Z,5.10
2023-02-25T21:09:35.207Z,5.50
2023-02-25T21:12:02.971Z,6.80
2023-02-25T21:14:30.554Z,6.97
2023-02-25T21:16:58.668Z,4.47
2023-02-25T21:19:33.114Z,4.70
2023-02-25T21:22:00.781Z,10.23
2023-02-25T21:24:28.350Z,9.13
2023-02-25T21:26:55.994Z,8.60
2023-02-25T21:29:23.477Z,8.27
2023-02-25T21:31:51.084Z,4.23
2023-02-25T21:34:18.655Z,7.57
2023-02-25T21:36:46.261Z,2.87
2023-02-25T21:39:13.839Z,4.10
2023-02-25T21:41:43.217Z,6.47
2023-02-25T21:44:12.584Z,8.13
2023-02-25T21:46:40.378Z,4.57
2023-02-25T21:49:07.967Z,11.13
2023-02-25T21:51:35.472Z,7.60
2023-02-25T21:54:03.285Z,10.37
2023-02-25T21:56:31.102Z,3.73
2023-02-25T21:59:03.677Z,8.00
2023-02-25T22:01:33.255Z,4.67
2023-02-25T22:04:00.959Z,4.90
2023-02-25T22:06:29.162Z,8.20
2023-02-25T22:08:56.728Z,8.40
2023-02-25T22:11:26.219Z,8.37
2023-02-25T22:13:53.894Z,5.43
2023-02-25T22:16:22.608Z,6.30
2023-02-25T22:18:50.601Z,4.67
2023-02-25T22:21:19.614Z,1.97
2023-02-25T22:23:48.359Z,8.03
2023-02-25T22:26:17.696Z,6.27
2023-02-25T22:28:45.879Z,3.27
2023-02-25T22:31:14.353Z,6.03
2023-02-25T22:33:42.276Z,6.73
2023-02-25T22:36:10.307Z,2.20
2023-02-25T22:38:39.347Z,6.57
2023-02-25T22:41:10.936Z,4.43
2023-02-25T22:43:38.452Z,2.87
2023-02-25T22:46:09.865Z,3.07
2023-02-25T22:48:38.028Z,5.43
2023-02-25T22:51:06.570Z,5.10
2023-02-25T22:53:34.190Z,4.90
2023-02-25T22:56:05.825Z,2.67
2023-02-25T22:58:33.525Z,3.33
2023-02-25T23:01:01.323Z,4.90
2023-02-25T23:03:28.908Z,7.40
2023-02-25T23:05:56.463Z,6.30
2023-02-25T23:08:24.305Z,4.43
2023-02-25T23:10:51.852Z,6.27
2023-02-25T23:13:19.518Z,6.67
2023-02-25T23:15:47.564Z,4.03
2023-02-25T23:18:16.192Z,5.73
2023-02-25T23:20:43.927Z,5.77
2023-02-25T23:23:11.462Z,4.63
2023-02-25T23:25:40.270Z,8.77
2023-02-25T23:28:08.843Z,4.43
2023-02-25T23:30:39.575Z,8.43
2023-02-25T23:33:07.173Z,6.90
2023-02-25T23:35:34.760Z,8.50
2023-02-25T23:38:02.305Z,6.70
2023-02-25T23:40:29.818Z,9.50
2023-02-25T23:42:57.401Z,7.60
2023-02-25T23:45:24.914Z,7.97
2023-02-25T23:47:52.523Z,6.83
2023-02-25T23:50:20.029Z,8.87
2023-02-25T23:52:47.647Z,3.47
2023-02-25T23:55:15.388Z,6.57
2023-02-25T23:57:42.973Z,6.77
